KDLO

Details ICAO KDLO
Name DELANO MUNI
Region United States
Timezone America/Los_Angeles (UTC-8.0)
Plans Departing 3
Arriving 2
Stats Elevation 314 ft / 96 m (AMSL)
Location 35.745581° -119.236506°
Runways 1
Magnetic Variation 12.527° E
Sunrise 2017-12-16 15:01:48 UTC / 2017-12-16 07:01:48 Local
Sunset 2017-12-17 00:46:27 UTC / 2017-12-16 16:46:27 Local
Advertisement - Login to hide

Runways

ID Width Length Bearing (true) Bearing (mag) Surface Threshold Offset Overrun Length
14 75 ft / 23 m 5,662 ft / 1,726 m 158.63° 146.10° Asphalt 1,640 ft / 500 m 300 ft / 91 m
32 75 ft / 23 m 5,662 ft / 1,726 m 338.63° 326.10° Asphalt 0 ft / 0 m 0 ft / 0 m

Map

Weather


0- 5 10 15 20 25 30 35+ Temperature / ° C

Clouds and Precipitation
Forecast for 2017-12-16 12:00 UTC. Updated a few seconds ago

Ground ~20,000 ft ~40,000 ft Winds

METAR

KDLO 161115Z AUTO 00000KT 5SM HZ CLR 05/00 A2992 RMK AO2 T00520000

TAF

Not found

Frequencies

Recorded 119.55 MHz AWOS 3
Approach 118.90 MHz BAKERSFIELD APP/DEP
Unicom 122.80 MHz CTAF/UNICOM
Warning: Do not use this data for real-world aviation or navigation. No guarantee of current accuracy is given.